sensor_id;sensor_type;location;lat;lon;timestamp;P1;durP1;ratioP1;P2;durP2;ratioP2
59336;SDS011;45115;52.002;4.686;2022-12-24T00:01:01;23.45;;;5.00;;
59336;SDS011;45115;52.002;4.686;2022-12-24T00:03:30;23.17;;;5.35;;
59336;SDS011;45115;52.002;4.686;2022-12-24T00:05:57;25.15;;;4.78;;
59336;SDS011;45115;52.002;4.686;2022-12-24T00:08:24;23.10;;;5.13;;
59336;SDS011;45115;52.002;4.686;2022-12-24T00:10:51;22.88;;;6.25;;
59336;SDS011;45115;52.002;4.686;2022-12-24T00:13:19;25.17;;;7.05;;
59336;SDS011;45115;52.002;4.686;2022-12-24T00:15:46;26.85;;;5.28;;
59336;SDS011;45115;52.002;4.686;2022-12-24T00:18:14;23.45;;;5.60;;
59336;SDS011;45115;52.002;4.686;2022-12-24T00:20:42;20.33;;;4.30;;
59336;SDS011;45115;52.002;4.686;2022-12-24T00:23:12;23.00;;;7.18;;
59336;SDS011;45115;52.002;4.686;2022-12-24T00:25:39;18.90;;;4.35;;
59336;SDS011;45115;52.002;4.686;2022-12-24T00:28:06;17.83;;;4.82;;
59336;SDS011;45115;52.002;4.686;2022-12-24T00:30:32;22.55;;;5.55;;
59336;SDS011;45115;52.002;4.686;2022-12-24T00:32:59;33.17;;;5.43;;
59336;SDS011;45115;52.002;4.686;2022-12-24T00:35:26;24.90;;;5.40;;
59336;SDS011;45115;52.002;4.686;2022-12-24T00:37:55;21.65;;;4.70;;
59336;SDS011;45115;52.002;4.686;2022-12-24T00:40:21;26.08;;;5.78;;
59336;SDS011;45115;52.002;4.686;2022-12-24T00:42:48;26.25;;;5.57;;
59336;SDS011;45115;52.002;4.686;2022-12-24T00:45:15;19.67;;;5.07;;
59336;SDS011;45115;52.002;4.686;2022-12-24T00:47:41;25.92;;;5.57;;
59336;SDS011;45115;52.002;4.686;2022-12-24T00:50:08;26.45;;;6.07;;
59336;SDS011;45115;52.002;4.686;2022-12-24T00:52:35;26.90;;;5.30;;
59336;SDS011;45115;52.002;4.686;2022-12-24T00:55:04;25.20;;;5.63;;
59336;SDS011;45115;52.002;4.686;2022-12-24T00:57:31;33.00;;;6.40;;
59336;SDS011;45115;52.002;4.686;2022-12-24T00:59:58;25.48;;;5.45;;
59336;SDS011;45115;52.002;4.686;2022-12-24T01:02:24;18.40;;;4.63;;
59336;SDS011;45115;52.002;4.686;2022-12-24T01:04:51;27.25;;;6.70;;
59336;SDS011;45115;52.002;4.686;2022-12-24T01:07:37;23.67;;;5.80;;
59336;SDS011;45115;52.002;4.686;2022-12-24T01:10:06;17.15;;;5.07;;
59336;SDS011;45115;52.002;4.686;2022-12-24T01:12:34;26.98;;;5.85;;
59336;SDS011;45115;52.002;4.686;2022-12-24T01:15:01;26.20;;;5.60;;
59336;SDS011;45115;52.002;4.686;2022-12-24T01:17:29;22.45;;;5.25;;
59336;SDS011;45115;52.002;4.686;2022-12-24T01:19:57;20.45;;;4.60;;
59336;SDS011;45115;52.002;4.686;2022-12-24T01:22:24;24.50;;;5.30;;
59336;SDS011;45115;52.002;4.686;2022-12-24T01:24:50;23.05;;;5.50;;
59336;SDS011;45115;52.002;4.686;2022-12-24T01:27:18;21.08;;;5.20;;
59336;SDS011;45115;52.002;4.686;2022-12-24T01:29:45;28.08;;;7.38;;
59336;SDS011;45115;52.002;4.686;2022-12-24T01:32:12;22.90;;;5.90;;
59336;SDS011;45115;52.002;4.686;2022-12-24T01:34:39;24.10;;;5.43;;
59336;SDS011;45115;52.002;4.686;2022-12-24T01:37:15;25.80;;;5.15;;
59336;SDS011;45115;52.002;4.686;2022-12-24T01:39:41;21.35;;;6.80;;
59336;SDS011;45115;52.002;4.686;2022-12-24T01:42:13;20.98;;;5.88;;
59336;SDS011;45115;52.002;4.686;2022-12-24T01:48:18;16.77;;;5.05;;
59336;SDS011;45115;52.002;4.686;2022-12-24T01:50:49;17.42;;;4.72;;
59336;SDS011;45115;52.002;4.686;2022-12-24T01:53:19;22.52;;;6.07;;
59336;SDS011;45115;52.002;4.686;2022-12-24T01:55:47;27.23;;;5.15;;
59336;SDS011;45115;52.002;4.686;2022-12-24T01:58:15;20.25;;;4.82;;
59336;SDS011;45115;52.002;4.686;2022-12-24T02:00:46;25.33;;;5.78;;
59336;SDS011;45115;52.002;4.686;2022-12-24T02:03:13;27.52;;;5.03;;
59336;SDS011;45115;52.002;4.686;2022-12-24T02:05:43;23.15;;;4.45;;
59336;SDS011;45115;52.002;4.686;2022-12-24T02:08:13;21.70;;;4.47;;
59336;SDS011;45115;52.002;4.686;2022-12-24T02:10:40;19.35;;;4.55;;
59336;SDS011;45115;52.002;4.686;2022-12-24T02:13:07;18.90;;;4.00;;
59336;SDS011;45115;52.002;4.686;2022-12-24T02:15:38;20.27;;;4.25;;
59336;SDS011;45115;52.002;4.686;2022-12-24T02:18:15;20.58;;;4.47;;
59336;SDS011;45115;52.002;4.686;2022-12-24T02:20:56;21.10;;;4.72;;
59336;SDS011;45115;52.002;4.686;2022-12-24T02:23:52;17.33;;;4.03;;
59336;SDS011;45115;52.002;4.686;2022-12-24T02:26:33;18.88;;;4.43;;
59336;SDS011;45115;52.002;4.686;2022-12-24T02:29:28;26.67;;;4.50;;
59336;SDS011;45115;52.002;4.686;2022-12-24T02:32:25;23.77;;;6.20;;
59336;SDS011;45115;52.002;4.686;2022-12-24T02:35:00;22.67;;;4.53;;
59336;SDS011;45115;52.002;4.686;2022-12-24T02:37:33;21.80;;;5.18;;
59336;SDS011;45115;52.002;4.686;2022-12-24T02:40:05;23.52;;;4.65;;
59336;SDS011;45115;52.002;4.686;2022-12-24T02:42:37;24.42;;;5.18;;
59336;SDS011;45115;52.002;4.686;2022-12-24T02:45:06;23.25;;;7.15;;
59336;SDS011;45115;52.002;4.686;2022-12-24T02:47:37;22.40;;;5.45;;
59336;SDS011;45115;52.002;4.686;2022-12-24T02:50:19;27.80;;;5.20;;
59336;SDS011;45115;52.002;4.686;2022-12-24T02:52:49;24.73;;;5.38;;
59336;SDS011;45115;52.002;4.686;2022-12-24T02:55:18;20.95;;;5.10;;
59336;SDS011;45115;52.002;4.686;2022-12-24T02:57:55;21.58;;;4.78;;
59336;SDS011;45115;52.002;4.686;2022-12-24T03:00:34;23.88;;;5.38;;
59336;SDS011;45115;52.002;4.686;2022-12-24T03:03:17;24.58;;;5.15;;
59336;SDS011;45115;52.002;4.686;2022-12-24T03:05:56;18.08;;;5.43;;
59336;SDS011;45115;52.002;4.686;2022-12-24T03:08:30;26.95;;;6.15;;
59336;SDS011;45115;52.002;4.686;2022-12-24T03:11:07;24.33;;;4.93;;
59336;SDS011;45115;52.002;4.686;2022-12-24T03:13:36;27.05;;;6.82;;
59336;SDS011;45115;52.002;4.686;2022-12-24T03:16:03;25.20;;;6.35;;
59336;SDS011;45115;52.002;4.686;2022-12-24T03:18:35;28.23;;;6.00;;
59336;SDS011;45115;52.002;4.686;2022-12-24T03:21:06;26.15;;;6.07;;
59336;SDS011;45115;52.002;4.686;2022-12-24T03:23:35;27.57;;;6.10;;
59336;SDS011;45115;52.002;4.686;2022-12-24T03:26:04;23.95;;;5.65;;
59336;SDS011;45115;52.002;4.686;2022-12-24T03:28:33;28.45;;;7.18;;
59336;SDS011;45115;52.002;4.686;2022-12-24T03:31:02;24.90;;;5.78;;
59336;SDS011;45115;52.002;4.686;2022-12-24T03:33:30;25.42;;;5.80;;
59336;SDS011;45115;52.002;4.686;2022-12-24T03:35:59;26.92;;;6.55;;
59336;SDS011;45115;52.002;4.686;2022-12-24T03:38:26;20.25;;;5.45;;
59336;SDS011;45115;52.002;4.686;2022-12-24T03:40:52;26.58;;;6.35;;
59336;SDS011;45115;52.002;4.686;2022-12-24T03:43:19;24.98;;;5.82;;
59336;SDS011;45115;52.002;4.686;2022-12-24T03:45:46;22.58;;;5.53;;
59336;SDS011;45115;52.002;4.686;2022-12-24T03:48:13;25.40;;;5.65;;
59336;SDS011;45115;52.002;4.686;2022-12-24T03:50:39;22.45;;;5.88;;
59336;SDS011;45115;52.002;4.686;2022-12-24T03:53:08;29.10;;;5.30;;
59336;SDS011;45115;52.002;4.686;2022-12-24T03:55:34;23.80;;;5.13;;
59336;SDS011;45115;52.002;4.686;2022-12-24T03:58:01;23.35;;;5.47;;
59336;SDS011;45115;52.002;4.686;2022-12-24T04:00:28;30.08;;;5.43;;
59336;SDS011;45115;52.002;4.686;2022-12-24T04:02:55;23.98;;;5.68;;
59336;SDS011;45115;52.002;4.686;2022-12-24T04:05:23;19.25;;;5.13;;
59336;SDS011;45115;52.002;4.686;2022-12-24T04:07:50;17.88;;;4.75;;
59336;SDS011;45115;52.002;4.686;2022-12-24T04:10:19;26.17;;;5.53;;
59336;SDS011;45115;52.002;4.686;2022-12-24T04:12:45;27.30;;;4.82;;
59336;SDS011;45115;52.002;4.686;2022-12-24T04:15:12;30.38;;;5.95;;
59336;SDS011;45115;52.002;4.686;2022-12-24T04:17:39;24.35;;;5.32;;
59336;SDS011;45115;52.002;4.686;2022-12-24T04:20:06;19.85;;;4.32;;
59336;SDS011;45115;52.002;4.686;2022-12-24T04:22:34;17.95;;;5.03;;
59336;SDS011;45115;52.002;4.686;2022-12-24T04:25:01;21.55;;;4.30;;
59336;SDS011;45115;52.002;4.686;2022-12-24T04:27:29;21.17;;;4.85;;
59336;SDS011;45115;52.002;4.686;2022-12-24T04:29:56;19.33;;;4.43;;
59336;SDS011;45115;52.002;4.686;2022-12-24T04:32:23;22.33;;;4.53;;
59336;SDS011;45115;52.002;4.686;2022-12-24T04:34:50;23.30;;;5.07;;
59336;SDS011;45115;52.002;4.686;2022-12-24T04:37:17;20.00;;;4.45;;
59336;SDS011;45115;52.002;4.686;2022-12-24T04:39:44;21.25;;;5.10;;
59336;SDS011;45115;52.002;4.686;2022-12-24T04:42:11;25.17;;;5.30;;
59336;SDS011;45115;52.002;4.686;2022-12-24T04:44:39;20.27;;;4.68;;
59336;SDS011;45115;52.002;4.686;2022-12-24T04:47:06;21.20;;;5.68;;
59336;SDS011;45115;52.002;4.686;2022-12-24T04:49:33;22.02;;;4.20;;
59336;SDS011;45115;52.002;4.686;2022-12-24T04:51:59;28.10;;;6.68;;
59336;SDS011;45115;52.002;4.686;2022-12-24T04:54:26;17.35;;;4.03;;
59336;SDS011;45115;52.002;4.686;2022-12-24T04:56:53;15.90;;;4.55;;
59336;SDS011;45115;52.002;4.686;2022-12-24T04:59:20;19.27;;;5.70;;
59336;SDS011;45115;52.002;4.686;2022-12-24T05:01:48;27.45;;;5.28;;
59336;SDS011;45115;52.002;4.686;2022-12-24T05:04:15;21.77;;;4.82;;
59336;SDS011;45115;52.002;4.686;2022-12-24T05:06:41;24.02;;;5.10;;
59336;SDS011;45115;52.002;4.686;2022-12-24T05:09:08;22.90;;;5.57;;
59336;SDS011;45115;52.002;4.686;2022-12-24T05:11:35;23.40;;;6.13;;
59336;SDS011;45115;52.002;4.686;2022-12-24T05:14:02;25.83;;;5.45;;
59336;SDS011;45115;52.002;4.686;2022-12-24T05:16:29;19.58;;;5.70;;
59336;SDS011;45115;52.002;4.686;2022-12-24T05:18:57;21.92;;;5.55;;
59336;SDS011;45115;52.002;4.686;2022-12-24T05:21:24;20.20;;;6.03;;
59336;SDS011;45115;52.002;4.686;2022-12-24T05:23:52;27.52;;;5.70;;
59336;SDS011;45115;52.002;4.686;2022-12-24T05:26:37;25.95;;;6.05;;
59336;SDS011;45115;52.002;4.686;2022-12-24T05:29:07;25.75;;;4.95;;
59336;SDS011;45115;52.002;4.686;2022-12-24T05:31:36;27.13;;;6.85;;
59336;SDS011;45115;52.002;4.686;2022-12-24T05:34:05;24.30;;;5.55;;
59336;SDS011;45115;52.002;4.686;2022-12-24T05:36:33;23.30;;;5.35;;
59336;SDS011;45115;52.002;4.686;2022-12-24T05:39:00;18.45;;;5.25;;
59336;SDS011;45115;52.002;4.686;2022-12-24T05:41:27;28.15;;;6.57;;
59336;SDS011;45115;52.002;4.686;2022-12-24T05:43:54;23.20;;;5.78;;
59336;SDS011;45115;52.002;4.686;2022-12-24T05:46:21;31.25;;;5.93;;
59336;SDS011;45115;52.002;4.686;2022-12-24T05:48:49;22.38;;;5.30;;
59336;SDS011;45115;52.002;4.686;2022-12-24T05:51:19;31.13;;;7.05;;
59336;SDS011;45115;52.002;4.686;2022-12-24T05:53:47;21.30;;;6.47;;
59336;SDS011;45115;52.002;4.686;2022-12-24T05:56:16;30.33;;;6.53;;
59336;SDS011;45115;52.002;4.686;2022-12-24T05:58:45;27.45;;;6.65;;
59336;SDS011;45115;52.002;4.686;2022-12-24T06:01:13;29.50;;;6.20;;
59336;SDS011;45115;52.002;4.686;2022-12-24T06:03:40;26.00;;;5.63;;
59336;SDS011;45115;52.002;4.686;2022-12-24T06:06:08;32.88;;;6.13;;
59336;SDS011;45115;52.002;4.686;2022-12-24T06:08:38;25.77;;;5.40;;
59336;SDS011;45115;52.002;4.686;2022-12-24T06:11:07;28.88;;;6.63;;
59336;SDS011;45115;52.002;4.686;2022-12-24T06:13:35;27.88;;;6.68;;
59336;SDS011;45115;52.002;4.686;2022-12-24T06:16:03;26.60;;;5.97;;
59336;SDS011;45115;52.002;4.686;2022-12-24T06:18:32;34.05;;;6.43;;
59336;SDS011;45115;52.002;4.686;2022-12-24T06:21:00;31.13;;;6.68;;
59336;SDS011;45115;52.002;4.686;2022-12-24T06:23:28;45.70;;;8.88;;
59336;SDS011;45115;52.002;4.686;2022-12-24T06:25:57;33.67;;;7.20;;
59336;SDS011;45115;52.002;4.686;2022-12-24T06:28:25;31.35;;;6.57;;
59336;SDS011;45115;52.002;4.686;2022-12-24T06:30:52;29.08;;;7.07;;
59336;SDS011;45115;52.002;4.686;2022-12-24T06:33:19;34.22;;;7.40;;
59336;SDS011;45115;52.002;4.686;2022-12-24T06:35:46;39.45;;;8.98;;
59336;SDS011;45115;52.002;4.686;2022-12-24T06:38:14;27.15;;;6.07;;
59336;SDS011;45115;52.002;4.686;2022-12-24T06:40:42;31.85;;;6.45;;
59336;SDS011;45115;52.002;4.686;2022-12-24T06:43:11;32.85;;;7.07;;
59336;SDS011;45115;52.002;4.686;2022-12-24T06:45:39;30.08;;;8.30;;
59336;SDS011;45115;52.002;4.686;2022-12-24T06:48:09;31.35;;;7.30;;
59336;SDS011;45115;52.002;4.686;2022-12-24T06:50:36;30.48;;;7.10;;
59336;SDS011;45115;52.002;4.686;2022-12-24T06:53:03;25.15;;;6.60;;
59336;SDS011;45115;52.002;4.686;2022-12-24T06:55:30;31.58;;;6.15;;
59336;SDS011;45115;52.002;4.686;2022-12-24T06:57:57;27.88;;;6.70;;
59336;SDS011;45115;52.002;4.686;2022-12-24T07:00:25;31.48;;;7.13;;
59336;SDS011;45115;52.002;4.686;2022-12-24T07:02:52;34.28;;;6.45;;
59336;SDS011;45115;52.002;4.686;2022-12-24T07:05:19;36.65;;;7.50;;
59336;SDS011;45115;52.002;4.686;2022-12-24T07:07:46;31.45;;;5.95;;
59336;SDS011;45115;52.002;4.686;2022-12-24T07:10:14;36.25;;;7.68;;
59336;SDS011;45115;52.002;4.686;2022-12-24T07:12:42;30.20;;;6.93;;
59336;SDS011;45115;52.002;4.686;2022-12-24T07:15:10;24.10;;;6.20;;
59336;SDS011;45115;52.002;4.686;2022-12-24T07:17:38;31.40;;;7.95;;
59336;SDS011;45115;52.002;4.686;2022-12-24T07:20:06;27.55;;;6.10;;
59336;SDS011;45115;52.002;4.686;2022-12-24T07:22:36;33.22;;;7.25;;
59336;SDS011;45115;52.002;4.686;2022-12-24T07:25:03;37.45;;;7.35;;
59336;SDS011;45115;52.002;4.686;2022-12-24T07:27:30;26.35;;;6.47;;
59336;SDS011;45115;52.002;4.686;2022-12-24T07:29:56;33.35;;;8.65;;
59336;SDS011;45115;52.002;4.686;2022-12-24T07:32:23;30.55;;;6.13;;
59336;SDS011;45115;52.002;4.686;2022-12-24T07:34:51;34.20;;;7.55;;
59336;SDS011;45115;52.002;4.686;2022-12-24T07:37:18;30.55;;;7.28;;
59336;SDS011;45115;52.002;4.686;2022-12-24T07:39:45;34.78;;;7.15;;
59336;SDS011;45115;52.002;4.686;2022-12-24T07:42:12;25.92;;;6.57;;
59336;SDS011;45115;52.002;4.686;2022-12-24T07:44:38;23.90;;;6.93;;
59336;SDS011;45115;52.002;4.686;2022-12-24T07:47:05;33.90;;;8.30;;
59336;SDS011;45115;52.002;4.686;2022-12-24T07:49:32;27.73;;;6.60;;
59336;SDS011;45115;52.002;4.686;2022-12-24T07:52:00;30.20;;;7.88;;
59336;SDS011;45115;52.002;4.686;2022-12-24T07:54:27;25.20;;;5.97;;
59336;SDS011;45115;52.002;4.686;2022-12-24T07:56:54;30.95;;;6.53;;
59336;SDS011;45115;52.002;4.686;2022-12-24T07:59:21;37.67;;;8.55;;
59336;SDS011;45115;52.002;4.686;2022-12-24T08:01:48;24.45;;;5.90;;
59336;SDS011;45115;52.002;4.686;2022-12-24T08:04:21;27.90;;;7.75;;
59336;SDS011;45115;52.002;4.686;2022-12-24T08:06:48;28.58;;;7.22;;
59336;SDS011;45115;52.002;4.686;2022-12-24T08:09:16;32.70;;;7.05;;
59336;SDS011;45115;52.002;4.686;2022-12-24T08:11:43;33.85;;;7.78;;
59336;SDS011;45115;52.002;4.686;2022-12-24T08:14:10;38.38;;;6.72;;
59336;SDS011;45115;52.002;4.686;2022-12-24T08:16:37;36.70;;;8.57;;
59336;SDS011;45115;52.002;4.686;2022-12-24T08:19:03;32.97;;;8.32;;
59336;SDS011;45115;52.002;4.686;2022-12-24T08:21:30;33.17;;;8.30;;
59336;SDS011;45115;52.002;4.686;2022-12-24T08:23:57;31.25;;;8.50;;
59336;SDS011;45115;52.002;4.686;2022-12-24T08:26:25;28.58;;;7.20;;
59336;SDS011;45115;52.002;4.686;2022-12-24T08:28:54;34.78;;;7.25;;
59336;SDS011;45115;52.002;4.686;2022-12-24T08:31:22;26.45;;;6.22;;
59336;SDS011;45115;52.002;4.686;2022-12-24T08:33:49;26.42;;;6.03;;
59336;SDS011;45115;52.002;4.686;2022-12-24T08:36:16;25.50;;;6.85;;
59336;SDS011;45115;52.002;4.686;2022-12-24T08:38:43;29.08;;;7.90;;
59336;SDS011;45115;52.002;4.686;2022-12-24T08:41:10;26.67;;;7.15;;
59336;SDS011;45115;52.002;4.686;2022-12-24T08:43:38;29.38;;;7.18;;
59336;SDS011;45115;52.002;4.686;2022-12-24T08:46:05;27.30;;;6.72;;
59336;SDS011;45115;52.002;4.686;2022-12-24T08:48:32;28.13;;;7.30;;
59336;SDS011;45115;52.002;4.686;2022-12-24T08:50:59;30.48;;;6.47;;
59336;SDS011;45115;52.002;4.686;2022-12-24T08:53:26;29.77;;;6.30;;
59336;SDS011;45115;52.002;4.686;2022-12-24T08:55:52;27.77;;;6.13;;
59336;SDS011;45115;52.002;4.686;2022-12-24T08:58:27;25.30;;;5.78;;
59336;SDS011;45115;52.002;4.686;2022-12-24T09:00:56;36.78;;;6.25;;
59336;SDS011;45115;52.002;4.686;2022-12-24T09:03:22;19.63;;;5.32;;
59336;SDS011;45115;52.002;4.686;2022-12-24T09:05:50;29.20;;;7.20;;
59336;SDS011;45115;52.002;4.686;2022-12-24T09:08:18;28.77;;;6.55;;
59336;SDS011;45115;52.002;4.686;2022-12-24T09:10:45;26.40;;;6.50;;
59336;SDS011;45115;52.002;4.686;2022-12-24T09:13:12;24.67;;;5.07;;
59336;SDS011;45115;52.002;4.686;2022-12-24T09:15:39;24.77;;;6.47;;
59336;SDS011;45115;52.002;4.686;2022-12-24T09:18:07;25.73;;;5.03;;
59336;SDS011;45115;52.002;4.686;2022-12-24T09:20:34;22.40;;;6.15;;
59336;SDS011;45115;52.002;4.686;2022-12-24T09:23:01;27.85;;;5.65;;
59336;SDS011;45115;52.002;4.686;2022-12-24T09:25:28;17.55;;;5.05;;
59336;SDS011;45115;52.002;4.686;2022-12-24T09:27:55;25.45;;;6.28;;
59336;SDS011;45115;52.002;4.686;2022-12-24T09:30:22;25.98;;;6.45;;
59336;SDS011;45115;52.002;4.686;2022-12-24T09:32:49;29.05;;;7.45;;
59336;SDS011;45115;52.002;4.686;2022-12-24T09:35:18;21.38;;;4.55;;
59336;SDS011;45115;52.002;4.686;2022-12-24T09:37:45;27.77;;;5.65;;
59336;SDS011;45115;52.002;4.686;2022-12-24T09:40:15;21.33;;;5.63;;
59336;SDS011;45115;52.002;4.686;2022-12-24T09:42:49;18.85;;;4.88;;
59336;SDS011;45115;52.002;4.686;2022-12-24T09:45:22;22.58;;;6.03;;
59336;SDS011;45115;52.002;4.686;2022-12-24T09:47:52;18.95;;;4.97;;
59336;SDS011;45115;52.002;4.686;2022-12-24T09:50:28;16.33;;;4.90;;
59336;SDS011;45115;52.002;4.686;2022-12-24T09:53:01;23.75;;;4.95;;
59336;SDS011;45115;52.002;4.686;2022-12-24T09:55:32;23.88;;;6.07;;
59336;SDS011;45115;52.002;4.686;2022-12-24T09:58:03;22.70;;;5.03;;
59336;SDS011;45115;52.002;4.686;2022-12-24T10:00:34;20.48;;;5.47;;
59336;SDS011;45115;52.002;4.686;2022-12-24T10:03:08;26.55;;;7.57;;
59336;SDS011;45115;52.002;4.686;2022-12-24T10:05:43;26.25;;;5.03;;
59336;SDS011;45115;52.002;4.686;2022-12-24T10:08:18;24.55;;;5.10;;
59336;SDS011;45115;52.002;4.686;2022-12-24T10:10:51;17.73;;;4.50;;
59336;SDS011;45115;52.002;4.686;2022-12-24T10:13:25;21.63;;;4.85;;
59336;SDS011;45115;52.002;4.686;2022-12-24T10:16:01;24.15;;;7.55;;
59336;SDS011;45115;52.002;4.686;2022-12-24T10:18:37;21.45;;;5.22;;
59336;SDS011;45115;52.002;4.686;2022-12-24T10:21:13;27.00;;;7.28;;
59336;SDS011;45115;52.002;4.686;2022-12-24T10:23:45;16.15;;;5.05;;
59336;SDS011;45115;52.002;4.686;2022-12-24T10:26:21;19.35;;;4.20;;
59336;SDS011;45115;52.002;4.686;2022-12-24T10:28:52;27.50;;;4.97;;
59336;SDS011;45115;52.002;4.686;2022-12-24T10:31:24;18.65;;;4.90;;
59336;SDS011;45115;52.002;4.686;2022-12-24T10:33:53;16.13;;;3.97;;
59336;SDS011;45115;52.002;4.686;2022-12-24T10:36:25;22.58;;;6.72;;
59336;SDS011;45115;52.002;4.686;2022-12-24T10:38:54;21.85;;;4.75;;
59336;SDS011;45115;52.002;4.686;2022-12-24T10:41:21;20.83;;;4.60;;
59336;SDS011;45115;52.002;4.686;2022-12-24T10:43:51;13.30;;;4.70;;
59336;SDS011;45115;52.002;4.686;2022-12-24T10:46:20;17.27;;;3.95;;
59336;SDS011;45115;52.002;4.686;2022-12-24T10:48:50;21.08;;;4.85;;
59336;SDS011;45115;52.002;4.686;2022-12-24T10:51:21;20.35;;;4.97;;
59336;SDS011;45115;52.002;4.686;2022-12-24T10:53:57;20.20;;;4.60;;
59336;SDS011;45115;52.002;4.686;2022-12-24T10:56:26;22.92;;;5.00;;
59336;SDS011;45115;52.002;4.686;2022-12-24T10:58:53;21.40;;;5.70;;
59336;SDS011;45115;52.002;4.686;2022-12-24T11:01:21;24.20;;;5.15;;
59336;SDS011;45115;52.002;4.686;2022-12-24T11:04:12;20.13;;;5.15;;
59336;SDS011;45115;52.002;4.686;2022-12-24T11:06:44;20.85;;;5.15;;
59336;SDS011;45115;52.002;4.686;2022-12-24T11:09:19;20.15;;;4.93;;
59336;SDS011;45115;52.002;4.686;2022-12-24T11:11:48;22.25;;;5.03;;
59336;SDS011;45115;52.002;4.686;2022-12-24T11:14:15;24.58;;;5.82;;
59336;SDS011;45115;52.002;4.686;2022-12-24T11:16:48;22.52;;;6.15;;
59336;SDS011;45115;52.002;4.686;2022-12-24T11:19:18;20.88;;;4.97;;
59336;SDS011;45115;52.002;4.686;2022-12-24T11:21:56;20.38;;;4.47;;
59336;SDS011;45115;52.002;4.686;2022-12-24T11:24:24;17.45;;;4.55;;
59336;SDS011;45115;52.002;4.686;2022-12-24T11:26:53;23.90;;;5.65;;
59336;SDS011;45115;52.002;4.686;2022-12-24T11:29:40;22.48;;;4.95;;
59336;SDS011;45115;52.002;4.686;2022-12-24T11:32:09;25.70;;;5.15;;
59336;SDS011;45115;52.002;4.686;2022-12-24T11:34:42;20.67;;;5.55;;
59336;SDS011;45115;52.002;4.686;2022-12-24T11:37:13;23.00;;;6.22;;
59336;SDS011;45115;52.002;4.686;2022-12-24T11:39:43;26.02;;;7.10;;
59336;SDS011;45115;52.002;4.686;2022-12-24T11:42:21;24.38;;;5.65;;
59336;SDS011;45115;52.002;4.686;2022-12-24T11:44:50;17.88;;;5.50;;
59336;SDS011;45115;52.002;4.686;2022-12-24T11:47:22;24.88;;;6.03;;
59336;SDS011;45115;52.002;4.686;2022-12-24T11:50:16;21.40;;;4.80;;
59336;SDS011;45115;52.002;4.686;2022-12-24T11:52:46;19.73;;;5.10;;
59336;SDS011;45115;52.002;4.686;2022-12-24T11:55:17;24.02;;;6.72;;
59336;SDS011;45115;52.002;4.686;2022-12-24T11:57:53;19.85;;;5.40;;
59336;SDS011;45115;52.002;4.686;2022-12-24T12:00:24;18.55;;;5.20;;
59336;SDS011;45115;52.002;4.686;2022-12-24T12:02:52;24.98;;;5.70;;
59336;SDS011;45115;52.002;4.686;2022-12-24T12:05:22;16.88;;;5.22;;
59336;SDS011;45115;52.002;4.686;2022-12-24T12:07:55;21.02;;;4.18;;
59336;SDS011;45115;52.002;4.686;2022-12-24T12:10:29;15.57;;;3.92;;
59336;SDS011;45115;52.002;4.686;2022-12-24T12:13:00;16.67;;;3.75;;
59336;SDS011;45115;52.002;4.686;2022-12-24T12:15:31;18.20;;;3.60;;
59336;SDS011;45115;52.002;4.686;2022-12-24T12:18:03;16.05;;;3.47;;
59336;SDS011;45115;52.002;4.686;2022-12-24T12:20:33;15.40;;;4.00;;
59336;SDS011;45115;52.002;4.686;2022-12-24T12:23:08;19.55;;;4.35;;
59336;SDS011;45115;52.002;4.686;2022-12-24T12:25:42;19.52;;;4.50;;
59336;SDS011;45115;52.002;4.686;2022-12-24T12:28:14;16.25;;;3.33;;
59336;SDS011;45115;52.002;4.686;2022-12-24T12:30:45;16.52;;;4.45;;
59336;SDS011;45115;52.002;4.686;2022-12-24T12:33:25;20.88;;;4.28;;
59336;SDS011;45115;52.002;4.686;2022-12-24T12:35:59;18.88;;;4.38;;
59336;SDS011;45115;52.002;4.686;2022-12-24T12:38:28;15.32;;;3.92;;
59336;SDS011;45115;52.002;4.686;2022-12-24T12:41:00;15.45;;;3.47;;
59336;SDS011;45115;52.002;4.686;2022-12-24T12:43:41;19.40;;;5.90;;
59336;SDS011;45115;52.002;4.686;2022-12-24T12:46:32;17.23;;;4.05;;
59336;SDS011;45115;52.002;4.686;2022-12-24T12:49:11;17.00;;;4.25;;
59336;SDS011;45115;52.002;4.686;2022-12-24T12:51:53;20.92;;;4.45;;
59336;SDS011;45115;52.002;4.686;2022-12-24T12:54:36;19.20;;;5.30;;
59336;SDS011;45115;52.002;4.686;2022-12-24T12:57:14;18.63;;;4.22;;
59336;SDS011;45115;52.002;4.686;2022-12-24T12:59:46;19.70;;;5.45;;
59336;SDS011;45115;52.002;4.686;2022-12-24T13:02:37;19.20;;;4.00;;
59336;SDS011;45115;52.002;4.686;2022-12-24T13:05:23;12.82;;;3.38;;
59336;SDS011;45115;52.002;4.686;2022-12-24T13:08:29;14.77;;;3.70;;
59336;SDS011;45115;52.002;4.686;2022-12-24T13:11:27;19.83;;;4.30;;
59336;SDS011;45115;52.002;4.686;2022-12-24T13:20:09;19.70;;;3.90;;
59336;SDS011;45115;52.002;4.686;2022-12-24T13:22:46;20.95;;;4.32;;
59336;SDS011;45115;52.002;4.686;2022-12-24T13:25:19;16.17;;;4.28;;
59336;SDS011;45115;52.002;4.686;2022-12-24T13:27:49;13.80;;;3.72;;
59336;SDS011;45115;52.002;4.686;2022-12-24T13:30:31;18.48;;;4.07;;
59336;SDS011;45115;52.002;4.686;2022-12-24T13:33:01;21.42;;;4.80;;
59336;SDS011;45115;52.002;4.686;2022-12-24T13:35:34;19.52;;;4.07;;
59336;SDS011;45115;52.002;4.686;2022-12-24T13:47:03;17.60;;;3.88;;
59336;SDS011;45115;52.002;4.686;2022-12-24T13:49:47;13.63;;;4.38;;
59336;SDS011;45115;52.002;4.686;2022-12-24T13:52:18;25.05;;;5.00;;
59336;SDS011;45115;52.002;4.686;2022-12-24T13:54:49;20.85;;;5.00;;
59336;SDS011;45115;52.002;4.686;2022-12-24T13:57:29;19.02;;;4.03;;
59336;SDS011;45115;52.002;4.686;2022-12-24T14:00:02;20.42;;;5.28;;
59336;SDS011;45115;52.002;4.686;2022-12-24T14:02:39;21.08;;;4.53;;
59336;SDS011;45115;52.002;4.686;2022-12-24T14:05:15;18.95;;;4.10;;
59336;SDS011;45115;52.002;4.686;2022-12-24T14:07:45;14.00;;;3.75;;
59336;SDS011;45115;52.002;4.686;2022-12-24T14:10:18;18.20;;;4.10;;
59336;SDS011;45115;52.002;4.686;2022-12-24T14:12:48;15.63;;;4.03;;
59336;SDS011;45115;52.002;4.686;2022-12-24T14:18:26;17.70;;;4.30;;
59336;SDS011;45115;52.002;4.686;2022-12-24T14:20:55;21.45;;;4.53;;
59336;SDS011;45115;52.002;4.686;2022-12-24T14:23:28;17.15;;;3.80;;
59336;SDS011;45115;52.002;4.686;2022-12-24T14:25:59;19.20;;;4.40;;
59336;SDS011;45115;52.002;4.686;2022-12-24T14:28:28;19.65;;;5.43;;
59336;SDS011;45115;52.002;4.686;2022-12-24T14:31:01;18.33;;;4.65;;
59336;SDS011;45115;52.002;4.686;2022-12-24T14:33:30;20.45;;;4.68;;
59336;SDS011;45115;52.002;4.686;2022-12-24T14:35:58;21.60;;;4.38;;
59336;SDS011;45115;52.002;4.686;2022-12-24T14:38:26;20.98;;;5.75;;
59336;SDS011;45115;52.002;4.686;2022-12-24T14:40:55;20.00;;;4.47;;
59336;SDS011;45115;52.002;4.686;2022-12-24T14:43:33;22.42;;;5.80;;
59336;SDS011;45115;52.002;4.686;2022-12-24T14:46:13;18.98;;;6.07;;
59336;SDS011;45115;52.002;4.686;2022-12-24T14:48:49;22.88;;;5.97;;
59336;SDS011;45115;52.002;4.686;2022-12-24T14:51:20;22.23;;;5.40;;
59336;SDS011;45115;52.002;4.686;2022-12-24T14:54:11;23.25;;;5.15;;
59336;SDS011;45115;52.002;4.686;2022-12-24T14:57:05;22.77;;;6.60;;
59336;SDS011;45115;52.002;4.686;2022-12-24T14:59:39;23.67;;;6.47;;
59336;SDS011;45115;52.002;4.686;2022-12-24T15:02:21;16.25;;;5.97;;
59336;SDS011;45115;52.002;4.686;2022-12-24T15:07:29;20.30;;;4.82;;
59336;SDS011;45115;52.002;4.686;2022-12-24T15:09:56;18.88;;;4.82;;
59336;SDS011;45115;52.002;4.686;2022-12-24T15:12:23;20.75;;;4.70;;
59336;SDS011;45115;52.002;4.686;2022-12-24T15:14:50;20.88;;;5.68;;
59336;SDS011;45115;52.002;4.686;2022-12-24T15:17:17;24.65;;;5.82;;